Argyle, TX

12:09 AM CST on December 18, 2014 (GMT -0600)
Lantana Cresent | Change Station
CLOSE
Current Station
Personal Weather Station
Location: Lantana, TX
Elevation: 623 ft
Nearby Weather Stations

Elev 623 ft 33.09 °N, 97.12 °W | Updated 5 minutes ago

Overcast
Overcast
41.2 °F
Feels Like 41 °F
N
2.2
Wind Variable Wind from NNE

Today
High -- | Low -- °F
--% Chance of Precip.
Yesterday
High -- | Low -- °F
Precip. -- in
7:26 AM 5:24 PM
Waning Crescent, 17% visible
Pressure 30.15 in
Visibility 4.0 miles
Clouds Overcast 400 ft
Windchill 41 °F
Dew Point 39 °F
Humidity 91%
Rainfall 0.00 in
Snow Depth Not available.
UV 0 out of 12
Pollen 8.20 out of 12
Air Quality Not available.
Flu Activity Not available.
METAR KDTO 180553Z AUTO 11006KT 4SM BR OVC004 04/04 A3015 RMK AO2 SLP209 60005 T00440044 10050 20044 400720006 55009

More Conditions Fewer Conditions

Pressure 30.15 in
Visibility 4.0 miles
Clouds Overcast 400 ft
Windchill 41 °F
Dew Point 39 °F
Humidity 91%
Rainfall 0.00 in
Snow Depth Not available.
UV 0 out of 12
Pollen 8.20 out of 12
Air Quality Not available.
Flu Activity Not available.
METAR KDTO 180553Z AUTO 11006KT 4SM BR OVC004 04/04 A3015 RMK AO2 SLP209 60005 T00440044 10050 20044 400720006 55009

More Conditions Fewer Conditions

Nowcast | as of 11:52 PM CST on December 17, 2014

As light rain and scattered showers...southeast of a Bonham to Lampasas line....continues to move southeast overnight...light drizzle will fill in behind. It will be a cloudy...damp and cold night across the entire area. Some dense fog is possible in the late night hours.

×

10-Day Weather Forecast

Almanac

Astronomy

Dec. 18, 2014 Rise Set
Actual Time
Civil Twilight
Nautical Twilight
Astronomical Twilight
Moon
Length of Visible Light
Length of Day
Tomorrow will be .
, % of the Moon is Illuminated

Today's Extremes

State Highs State Lows

Community

WunderPhotos

Upload Photos

1,778,896 photos uploaded!

WunderBlogs® & News

Nearby

Air Quality

  Air Quality AQ Index Pollutant
Not available.

Snow Depth

Station Depth Elevation

Earthquake Activity

City Distance Mag. Time & Date
Minimum magnitude displayed is 2.5.

Coastal Water Temperatures

Place Temperature

Nearby Weather Stations